createdAt,value
2022-11-07T00:01:41.801Z,1.97
2022-11-07T00:04:09.489Z,2.23
2022-11-07T00:06:38.450Z,1.90
2022-11-07T00:09:06.171Z,1.90
2022-11-07T00:11:33.864Z,2.00
2022-11-07T00:14:01.528Z,2.17
2022-11-07T00:16:29.340Z,2.20
2022-11-07T00:18:57.101Z,1.93
2022-11-07T00:21:24.987Z,2.00
2022-11-07T00:23:54.007Z,1.70
2022-11-07T00:26:22.090Z,1.97
2022-11-07T00:28:49.843Z,2.13
2022-11-07T00:31:18.019Z,2.10
2022-11-07T00:33:46.127Z,2.00
2022-11-07T00:36:17.923Z,2.10
2022-11-07T00:38:45.604Z,1.87
2022-11-07T00:41:14.808Z,1.90
2022-11-07T00:43:42.856Z,1.80
2022-11-07T00:46:11.242Z,1.50
2022-11-07T00:48:38.948Z,1.83
2022-11-07T00:51:06.926Z,1.70
2022-11-07T00:53:34.572Z,1.60
2022-11-07T00:56:03.345Z,1.50
2022-11-07T00:58:32.547Z,1.90
2022-11-07T01:01:00.423Z,1.67
2022-11-07T01:03:38.450Z,1.80
2022-11-07T01:06:06.265Z,1.40
2022-11-07T01:08:33.902Z,1.80
2022-11-07T01:11:04.082Z,1.73
2022-11-07T01:13:33.078Z,1.87
2022-11-07T01:16:00.976Z,2.03
2022-11-07T01:18:28.661Z,1.77
2022-11-07T01:20:56.341Z,1.80
2022-11-07T01:23:24.029Z,1.77
2022-11-07T01:25:51.800Z,1.70
2022-11-07T01:28:19.445Z,1.83
2022-11-07T01:30:48.369Z,2.00
2022-11-07T01:33:16.566Z,2.03
2022-11-07T01:35:44.603Z,1.77
2022-11-07T01:38:12.226Z,1.90
2022-11-07T01:40:57.320Z,1.97
2022-11-07T01:43:29.889Z,2.00
2022-11-07T01:45:58.785Z,2.00
2022-11-07T01:48:26.478Z,2.37
2022-11-07T01:50:54.146Z,1.60
2022-11-07T01:53:22.233Z,1.97
2022-11-07T01:55:49.969Z,2.10
2022-11-07T01:58:17.673Z,2.10
2022-11-07T02:00:45.377Z,2.00
2022-11-07T02:03:17.089Z,1.77
2022-11-07T02:05:47.519Z,2.00
2022-11-07T02:08:15.607Z,1.70
2022-11-07T02:10:43.444Z,1.70
2022-11-07T02:13:12.641Z,1.50
2022-11-07T02:15:40.465Z,1.80
2022-11-07T02:18:08.466Z,1.93
2022-11-07T02:20:37.487Z,1.63
2022-11-07T02:23:06.710Z,1.63
2022-11-07T02:25:35.990Z,1.70
2022-11-07T02:28:23.443Z,1.50
2022-11-07T02:30:51.064Z,1.70
2022-11-07T02:33:19.584Z,1.60
2022-11-07T02:35:48.106Z,1.47
2022-11-07T02:38:17.837Z,1.43
2022-11-07T02:40:48.506Z,1.37
2022-11-07T02:43:17.941Z,1.60
2022-11-07T02:45:46.969Z,1.30
2022-11-07T02:48:14.811Z,1.40
2022-11-07T02:50:42.665Z,1.20
2022-11-07T02:53:10.904Z,1.00
2022-11-07T02:55:38.562Z,1.57
2022-11-07T02:58:07.549Z,1.60
2022-11-07T03:00:35.210Z,1.60
2022-11-07T03:03:03.245Z,1.17
2022-11-07T03:05:30.957Z,1.47
2022-11-07T03:07:58.657Z,1.10
2022-11-07T03:10:26.299Z,1.17
2022-11-07T03:12:53.945Z,1.20
2022-11-07T03:15:22.946Z,1.17
2022-11-07T03:17:50.590Z,1.20
2022-11-07T03:20:18.242Z,1.00
2022-11-07T03:22:47.565Z,1.23
2022-11-07T03:25:15.222Z,1.10
2022-11-07T03:27:47.087Z,1.27
2022-11-07T03:30:15.008Z,1.00
2022-11-07T03:32:44.277Z,1.23
2022-11-07T03:35:12.156Z,1.10
2022-11-07T03:37:39.906Z,0.83
2022-11-07T03:40:08.174Z,1.00
2022-11-07T03:42:38.702Z,1.10
2022-11-07T03:45:07.021Z,1.20
2022-11-07T03:47:35.186Z,1.00
2022-11-07T03:50:06.710Z,1.10
2022-11-07T03:52:34.407Z,1.10
2022-11-07T03:55:02.085Z,1.20
2022-11-07T03:57:29.722Z,0.90
2022-11-07T03:59:57.389Z,1.00
2022-11-07T04:02:26.388Z,1.00
2022-11-07T04:04:54.145Z,1.00
2022-11-07T04:07:23.340Z,1.30
2022-11-07T04:09:51.045Z,1.20
2022-11-07T04:12:27.733Z,1.57
2022-11-07T04:15:04.353Z,1.20
2022-11-07T04:17:32.070Z,1.20
2022-11-07T04:19:59.727Z,1.40
2022-11-07T04:22:28.627Z,0.97
2022-11-07T04:24:56.293Z,1.30
2022-11-07T04:27:33.016Z,1.20
2022-11-07T04:30:18.819Z,1.13
2022-11-07T04:32:46.834Z,1.10
2022-11-07T04:35:14.593Z,1.20
2022-11-07T04:37:43.583Z,1.10
2022-11-07T04:40:11.814Z,0.90
2022-11-07T04:42:39.970Z,1.10
2022-11-07T04:45:08.149Z,1.00
2022-11-07T04:47:40.214Z,1.23
2022-11-07T04:50:09.557Z,1.30
2022-11-07T04:52:37.230Z,1.30
2022-11-07T04:55:06.468Z,1.47
2022-11-07T04:57:34.115Z,1.37
2022-11-07T05:00:02.528Z,1.20
2022-11-07T05:02:30.931Z,1.40
2022-11-07T05:04:58.598Z,1.10
2022-11-07T05:07:26.244Z,1.20
2022-11-07T05:09:53.879Z,1.43
2022-11-07T05:12:23.087Z,1.20
2022-11-07T05:14:50.874Z,1.20
2022-11-07T05:17:18.586Z,1.10
2022-11-07T05:19:47.755Z,1.67
2022-11-07T05:22:25.009Z,1.30
2022-11-07T05:24:52.670Z,1.50
2022-11-07T05:27:21.062Z,1.63
2022-11-07T05:29:50.414Z,1.40
2022-11-07T05:32:18.462Z,1.30
2022-11-07T05:34:46.122Z,1.40
2022-11-07T05:37:14.284Z,1.40
2022-11-07T05:39:41.961Z,1.33
2022-11-07T05:42:09.625Z,1.47
2022-11-07T05:44:37.406Z,1.20
2022-11-07T05:47:06.358Z,1.17
2022-11-07T05:49:33.983Z,1.20
2022-11-07T05:52:01.620Z,1.50
2022-11-07T05:54:30.309Z,1.50
2022-11-07T05:56:58.500Z,1.27
2022-11-07T05:59:26.233Z,1.53
2022-11-07T06:01:54.942Z,1.50
2022-11-07T06:04:24.075Z,1.37
2022-11-07T06:06:51.793Z,1.30
2022-11-07T06:09:19.439Z,1.57
2022-11-07T06:11:47.081Z,1.60
2022-11-07T06:14:14.698Z,1.40
2022-11-07T06:16:42.342Z,1.40
2022-11-07T06:19:09.980Z,1.50
2022-11-07T06:21:38.957Z,1.50
2022-11-07T06:24:08.852Z,1.60
2022-11-07T06:26:40.096Z,1.67
2022-11-07T06:29:07.737Z,1.40
2022-11-07T06:31:35.453Z,1.83
2022-11-07T06:34:03.067Z,1.67
2022-11-07T06:36:30.797Z,1.87
2022-11-07T06:38:59.770Z,1.80
2022-11-07T06:41:27.453Z,2.00
2022-11-07T06:43:55.224Z,2.07
2022-11-07T06:46:23.302Z,2.30
2022-11-07T06:48:50.935Z,2.10
2022-11-07T06:51:18.626Z,2.00
2022-11-07T06:53:46.297Z,2.10
2022-11-07T06:56:16.440Z,2.03
2022-11-07T06:58:44.081Z,2.27
2022-11-07T07:01:13.626Z,2.30
2022-11-07T07:03:42.093Z,2.27
2022-11-07T07:06:12.407Z,2.13
2022-11-07T07:08:40.385Z,2.03
2022-11-07T07:11:08.915Z,1.77
2022-11-07T07:13:38.301Z,2.53
2022-11-07T07:16:06.307Z,2.80
2022-11-07T07:18:34.361Z,2.33
2022-11-07T07:21:04.743Z,2.30
2022-11-07T07:23:33.128Z,2.30
2022-11-07T07:26:01.004Z,2.87
2022-11-07T07:28:28.931Z,1.80
2022-11-07T07:31:08.469Z,2.17
2022-11-07T07:33:36.197Z,2.30
2022-11-07T07:36:21.574Z,2.30
2022-11-07T07:38:49.698Z,1.93
2022-11-07T07:41:17.525Z,1.67
2022-11-07T07:43:45.429Z,2.57
2022-11-07T07:46:15.829Z,3.20
2022-11-07T07:48:43.497Z,2.70
2022-11-07T07:51:11.093Z,2.57
2022-11-07T07:53:38.717Z,2.50
2022-11-07T07:56:07.337Z,2.40
2022-11-07T07:58:35.387Z,2.57
2022-11-07T08:01:03.448Z,2.50
2022-11-07T08:03:57.504Z,2.00
2022-11-07T08:06:20.098Z,2.10
2022-11-07T08:08:47.767Z,2.43
2022-11-07T08:11:15.426Z,2.20
2022-11-07T08:13:43.057Z,2.13
2022-11-07T08:16:10.917Z,2.13
2022-11-07T08:18:40.876Z,2.40
2022-11-07T08:21:08.888Z,2.20
2022-11-07T08:23:36.820Z,1.90
2022-11-07T08:26:04.905Z,2.10
2022-11-07T08:28:33.618Z,1.93
2022-11-07T08:31:01.983Z,2.30
2022-11-07T08:33:30.096Z,2.03
2022-11-07T08:36:00.528Z,3.37
2022-11-07T08:38:28.374Z,2.90
2022-11-07T08:40:56.562Z,2.60
2022-11-07T08:43:24.266Z,2.40
2022-11-07T08:45:53.120Z,3.00
2022-11-07T08:48:21.096Z,2.97
2022-11-07T08:50:52.239Z,3.13
2022-11-07T08:53:21.844Z,2.57
2022-11-07T08:55:49.743Z,1.80
2022-11-07T08:58:17.490Z,0.90
2022-11-07T09:00:45.535Z,1.23
2022-11-07T09:06:01.739Z,1.20
2022-11-07T09:08:30.754Z,0.82
2022-11-07T09:11:01.675Z,1.00
2022-11-07T09:13:29.330Z,0.90
2022-11-07T09:15:57.635Z,0.80
2022-11-07T09:18:25.351Z,0.90
2022-11-07T09:20:53.342Z,0.70
2022-11-07T09:23:21.313Z,1.10
2022-11-07T09:25:50.273Z,0.77
2022-11-07T09:28:17.938Z,0.90
2022-11-07T09:30:45.593Z,0.80
2022-11-07T09:33:13.665Z,0.80
2022-11-07T09:35:41.577Z,0.90
2022-11-07T09:38:09.238Z,0.80
2022-11-07T09:40:41.450Z,1.27
2022-11-07T09:43:25.746Z,0.70
2022-11-07T09:45:55.994Z,0.70
2022-11-07T09:48:26.772Z,0.70
2022-11-07T09:50:54.503Z,0.80
2022-11-07T09:53:29.506Z,0.77
2022-11-07T09:55:58.704Z,0.80
2022-11-07T09:58:30.501Z,0.80
2022-11-07T10:01:01.606Z,0.70
2022-11-07T10:03:29.374Z,0.73
2022-11-07T10:06:01.323Z,0.63
2022-11-07T10:08:32.960Z,0.90
2022-11-07T10:11:01.240Z,0.90
2022-11-07T10:13:46.280Z,0.88
2022-11-07T10:16:16.729Z,0.90
2022-11-07T10:18:52.325Z,0.80
2022-11-07T10:21:37.690Z,0.85
2022-11-07T10:24:14.048Z,0.80
2022-11-07T10:26:43.229Z,0.88
2022-11-07T10:29:14.221Z,1.00
2022-11-07T10:31:43.348Z,0.93
2022-11-07T10:34:16.108Z,1.10
2022-11-07T10:36:44.567Z,1.20
2022-11-07T10:39:15.470Z,0.95
2022-11-07T10:41:44.824Z,1.17
2022-11-07T10:44:14.839Z,1.33
2022-11-07T10:46:43.429Z,1.10
2022-11-07T10:49:18.805Z,1.23
2022-11-07T10:51:46.528Z,1.45
2022-11-07T10:54:22.105Z,1.05
2022-11-07T10:56:51.100Z,0.93
2022-11-07T10:59:25.004Z,1.02
2022-11-07T11:01:54.105Z,1.23
2022-11-07T11:04:22.272Z,1.30
2022-11-07T11:06:57.633Z,1.50
2022-11-07T11:09:30.265Z,1.23
2022-11-07T11:11:58.251Z,1.20
2022-11-07T11:14:27.600Z,1.60
2022-11-07T11:16:56.350Z,1.17
2022-11-07T11:19:25.470Z,1.40
2022-11-07T11:21:55.266Z,1.10
2022-11-07T11:24:32.271Z,1.30
2022-11-07T11:27:01.982Z,1.30
2022-11-07T11:29:39.162Z,0.98
2022-11-07T11:32:12.919Z,0.88
2022-11-07T11:34:43.610Z,0.80
2022-11-07T11:37:14.138Z,0.93
2022-11-07T11:39:43.530Z,0.80
2022-11-07T11:42:15.330Z,0.70
2022-11-07T11:44:45.280Z,0.80
2022-11-07T11:47:17.427Z,0.82
2022-11-07T11:49:46.206Z,0.77
2022-11-07T11:52:15.846Z,0.73
2022-11-07T11:54:44.048Z,0.60
2022-11-07T11:57:14.352Z,0.70
2022-11-07T11:59:50.989Z,0.55
2022-11-07T12:02:29.672Z,0.40
2022-11-07T12:05:00.329Z,0.70
2022-11-07T12:07:39.283Z,0.60
2022-11-07T12:10:09.401Z,0.60
2022-11-07T12:12:50.074Z,0.70
2022-11-07T12:15:26.817Z,0.60
2022-11-07T12:17:56.438Z,0.50
2022-11-07T12:20:27.603Z,0.47
2022-11-07T12:23:01.646Z,0.60
2022-11-07T12:25:30.684Z,0.52
2022-11-07T12:28:02.457Z,0.80
2022-11-07T12:30:37.440Z,0.60
2022-11-07T12:33:11.802Z,0.82
2022-11-07T12:35:44.149Z,0.60
2022-11-07T12:38:23.734Z,0.57
2022-11-07T12:40:57.835Z,0.60
2022-11-07T12:43:31.914Z,0.50
2022-11-07T12:46:06.827Z,0.40
2022-11-07T12:48:44.853Z,0.70
2022-11-07T12:51:16.213Z,0.75
2022-11-07T12:53:49.869Z,0.60
2022-11-07T12:56:21.846Z,0.40
2022-11-07T12:58:51.512Z,0.50
2022-11-07T13:01:22.906Z,0.63
2022-11-07T13:03:54.081Z,0.68
2022-11-07T13:06:28.154Z,0.70
2022-11-07T13:09:00.347Z,0.70
2022-11-07T13:11:33.457Z,0.52
2022-11-07T13:14:22.721Z,0.60
2022-11-07T13:16:54.803Z,0.70
2022-11-07T13:19:32.293Z,0.60
2022-11-07T13:22:01.607Z,0.47
2022-11-07T13:24:30.016Z,0.60
2022-11-07T13:26:57.809Z,0.80
2022-11-07T13:29:27.400Z,0.60
2022-11-07T13:32:04.466Z,0.70
2022-11-07T13:34:39.857Z,0.63
2022-11-07T13:37:08.123Z,0.50
2022-11-07T13:39:36.201Z,0.50
2022-11-07T13:42:04.423Z,0.50
2022-11-07T13:44:34.833Z,0.50
2022-11-07T13:47:05.167Z,0.60
2022-11-07T13:49:41.373Z,0.65
2022-11-07T13:52:14.702Z,0.52
2022-11-07T13:54:50.019Z,0.77
2022-11-07T13:57:19.862Z,0.47
2022-11-07T13:59:51.346Z,0.40
2022-11-07T14:02:20.325Z,0.60
2022-11-07T14:05:15.280Z,0.60
2022-11-07T14:07:43.009Z,0.50
2022-11-07T14:10:16.245Z,0.40
2022-11-07T14:12:44.512Z,0.60
2022-11-07T14:15:15.110Z,0.50
2022-11-07T14:17:44.138Z,0.50
2022-11-07T14:20:16.909Z,0.55
2022-11-07T14:22:53.843Z,0.60
2022-11-07T14:25:23.812Z,0.70
2022-11-07T14:27:51.652Z,0.63
2022-11-07T14:30:20.370Z,0.60
2022-11-07T14:32:49.146Z,0.73
2022-11-07T14:35:21.173Z,0.70
2022-11-07T14:37:49.141Z,0.77
2022-11-07T14:40:16.885Z,0.90
2022-11-07T14:42:45.871Z,1.08
2022-11-07T14:45:15.159Z,0.90
2022-11-07T14:47:44.306Z,1.20
2022-11-07T14:50:15.129Z,1.02
2022-11-07T14:52:48.082Z,1.00
2022-11-07T14:55:20.675Z,0.70
2022-11-07T14:57:48.648Z,0.85
2022-11-07T15:00:18.317Z,0.57
2022-11-07T15:02:47.592Z,0.60
2022-11-07T15:05:24.767Z,1.13
2022-11-07T15:07:54.063Z,0.60
2022-11-07T15:10:26.881Z,0.80
2022-11-07T15:12:55.624Z,0.90
2022-11-07T15:15:24.531Z,0.82
2022-11-07T15:17:52.886Z,1.23
2022-11-07T15:20:22.351Z,0.90
2022-11-07T15:22:50.238Z,1.10
2022-11-07T15:25:27.771Z,0.95
2022-11-07T15:27:55.698Z,0.95
2022-11-07T15:30:26.022Z,0.80
2022-11-07T15:32:54.661Z,1.75
2022-11-07T15:35:43.108Z,1.00
2022-11-07T15:38:16.226Z,0.90
2022-11-07T15:40:45.574Z,0.90
2022-11-07T15:43:14.118Z,0.95
2022-11-07T15:45:41.950Z,1.08
2022-11-07T15:48:10.321Z,0.90
2022-11-07T15:50:42.228Z,1.10
2022-11-07T15:53:15.542Z,2.10
2022-11-07T15:55:43.429Z,2.42
2022-11-07T15:58:14.645Z,2.20
2022-11-07T16:00:42.981Z,1.65
2022-11-07T16:03:14.577Z,1.30
2022-11-07T16:05:42.452Z,1.17
2022-11-07T16:08:12.456Z,1.30
2022-11-07T16:10:41.906Z,1.33
2022-11-07T16:13:10.069Z,1.10
2022-11-07T16:15:40.125Z,1.60
2022-11-07T16:18:14.244Z,1.52
2022-11-07T16:20:42.134Z,1.10
2022-11-07T16:23:10.344Z,1.35
2022-11-07T16:25:39.773Z,1.90
2022-11-07T16:28:11.705Z,1.45
2022-11-07T16:30:40.673Z,1.70
2022-11-07T16:33:09.882Z,1.20
2022-11-07T16:35:37.844Z,1.40
2022-11-07T16:38:06.251Z,1.42
2022-11-07T16:40:34.045Z,1.27
2022-11-07T16:43:03.407Z,1.35
2022-11-07T16:45:31.142Z,1.52
2022-11-07T16:48:01.203Z,1.60
2022-11-07T16:50:28.985Z,2.83
2022-11-07T16:52:56.673Z,2.50
2022-11-07T16:55:24.406Z,2.35
2022-11-07T16:57:52.093Z,2.00
2022-11-07T17:00:21.455Z,1.48
2022-11-07T17:02:49.253Z,1.75
2022-11-07T17:05:18.557Z,2.53
2022-11-07T17:07:46.205Z,2.45
2022-11-07T17:10:16.057Z,1.80
2022-11-07T17:12:43.772Z,1.55
2022-11-07T17:15:11.728Z,1.40
2022-11-07T17:17:39.728Z,1.77
2022-11-07T17:20:07.888Z,1.50
2022-11-07T17:22:36.828Z,1.50
2022-11-07T17:25:04.607Z,2.13
2022-11-07T17:27:32.413Z,1.98
2022-11-07T17:30:03.205Z,1.63
2022-11-07T17:32:33.680Z,1.73
2022-11-07T17:35:30.087Z,1.63
2022-11-07T17:37:50.331Z,1.80
2022-11-07T17:40:18.769Z,1.97
2022-11-07T17:42:46.446Z,1.50
2022-11-07T17:45:14.119Z,1.50
2022-11-07T17:47:41.785Z,1.50
2022-11-07T17:50:11.438Z,1.63
2022-11-07T17:52:39.189Z,1.50
2022-11-07T17:55:08.830Z,1.20
2022-11-07T17:57:38.045Z,1.47
2022-11-07T18:00:07.652Z,1.33
2022-11-07T18:02:36.947Z,1.40
2022-11-07T18:05:04.789Z,1.70
2022-11-07T18:07:33.232Z,1.37
2022-11-07T18:10:01.985Z,1.50
2022-11-07T18:12:30.930Z,1.50
2022-11-07T18:14:59.150Z,2.03
2022-11-07T18:17:26.806Z,1.47
2022-11-07T18:19:54.707Z,1.53
2022-11-07T18:22:22.368Z,1.30
2022-11-07T18:24:50.073Z,1.30
2022-11-07T18:27:17.749Z,1.33
2022-11-07T18:29:46.711Z,1.70
2022-11-07T18:32:14.338Z,1.63
2022-11-07T18:34:42.190Z,2.00
2022-11-07T18:37:09.885Z,1.30
2022-11-07T18:39:37.528Z,1.40
2022-11-07T18:42:05.309Z,1.70
2022-11-07T18:44:32.994Z,1.87
2022-11-07T18:47:01.967Z,1.90
2022-11-07T18:49:29.763Z,2.00
2022-11-07T18:51:57.443Z,1.73
2022-11-07T18:54:26.203Z,1.50
2022-11-07T18:56:53.926Z,1.70
2022-11-07T18:59:21.671Z,1.63
2022-11-07T19:01:49.506Z,2.43
2022-11-07T19:04:18.605Z,2.83
2022-11-07T19:06:57.117Z,2.70
2022-11-07T19:09:26.823Z,1.80
2022-11-07T19:11:54.490Z,2.53
2022-11-07T19:14:22.235Z,2.40
2022-11-07T19:16:49.927Z,2.23
2022-11-07T19:19:18.942Z,1.90
2022-11-07T19:21:46.606Z,2.17
2022-11-07T19:24:14.389Z,2.10
2022-11-07T19:26:42.144Z,2.47
2022-11-07T19:29:10.346Z,2.20
2022-11-07T19:31:38.395Z,2.83
2022-11-07T19:34:06.164Z,2.03
2022-11-07T19:36:35.371Z,2.30
2022-11-07T19:39:04.830Z,2.67
2022-11-07T19:41:32.469Z,1.97
2022-11-07T19:44:01.747Z,2.30
2022-11-07T19:46:29.452Z,2.00
2022-11-07T19:48:57.365Z,2.03
2022-11-07T19:51:25.030Z,1.80
2022-11-07T19:53:54.809Z,1.80
2022-11-07T19:56:22.992Z,1.67
2022-11-07T19:58:50.645Z,2.10
2022-11-07T20:01:20.562Z,1.87
2022-11-07T20:03:49.109Z,1.80
2022-11-07T20:06:18.156Z,1.50
2022-11-07T20:08:46.222Z,1.73
2022-11-07T20:11:15.703Z,1.63
2022-11-07T20:13:43.486Z,1.80
2022-11-07T20:16:11.646Z,1.63
2022-11-07T20:18:40.214Z,2.10
2022-11-07T20:21:10.229Z,1.50
2022-11-07T20:23:37.966Z,1.90
2022-11-07T20:26:06.360Z,1.50
2022-11-07T20:28:35.310Z,1.67
2022-11-07T20:31:07.267Z,1.93
2022-11-07T20:33:34.983Z,1.70
2022-11-07T20:36:03.693Z,1.87
2022-11-07T20:38:32.028Z,2.23
2022-11-07T20:41:00.043Z,1.80
2022-11-07T20:43:27.723Z,1.67
2022-11-07T20:45:56.769Z,2.00
2022-11-07T20:48:24.450Z,2.00
2022-11-07T20:50:52.309Z,1.87
2022-11-07T20:53:20.178Z,1.60
2022-11-07T20:55:48.026Z,1.53
2022-11-07T20:58:15.747Z,1.90
2022-11-07T21:00:43.675Z,1.50
2022-11-07T21:03:14.886Z,1.70
2022-11-07T21:05:42.911Z,1.90
2022-11-07T21:08:10.757Z,1.53
2022-11-07T21:10:38.455Z,2.03
2022-11-07T21:13:06.190Z,2.07
2022-11-07T21:15:34.363Z,1.80
2022-11-07T21:18:03.208Z,1.77
2022-11-07T21:20:32.389Z,1.90
2022-11-07T21:23:00.107Z,1.20
2022-11-07T21:25:27.793Z,1.80
2022-11-07T21:27:55.438Z,1.40
2022-11-07T21:30:23.143Z,1.73
2022-11-07T21:32:50.813Z,1.70
2022-11-07T21:35:18.548Z,1.77
2022-11-07T21:37:47.464Z,1.63
2022-11-07T21:40:15.123Z,1.57
2022-11-07T21:42:42.815Z,1.50
2022-11-07T21:45:11.031Z,2.40
2022-11-07T21:47:43.208Z,1.90
2022-11-07T21:50:42.468Z,1.40
2022-11-07T21:53:06.373Z,1.90
2022-11-07T21:55:34.140Z,1.40
2022-11-07T21:58:01.841Z,1.60
2022-11-07T22:00:35.586Z,1.70
2022-11-07T22:03:04.115Z,1.57
2022-11-07T22:05:31.876Z,1.60
2022-11-07T22:07:59.583Z,1.70
2022-11-07T22:10:28.504Z,1.70
2022-11-07T22:12:56.102Z,1.47
2022-11-07T22:15:23.881Z,1.50
2022-11-07T22:17:51.535Z,1.40
2022-11-07T22:20:19.162Z,1.63
2022-11-07T22:22:46.868Z,1.70
2022-11-07T22:25:14.547Z,1.43
2022-11-07T22:27:43.473Z,1.57
2022-11-07T22:30:11.426Z,1.57
2022-11-07T22:32:39.152Z,1.63
2022-11-07T22:35:09.272Z,1.60
2022-11-07T22:37:37.143Z,1.87
2022-11-07T22:40:04.950Z,2.07
2022-11-07T22:42:34.113Z,1.70
2022-11-07T22:45:03.138Z,1.80
2022-11-07T22:47:31.024Z,1.50
2022-11-07T22:49:58.735Z,1.60
2022-11-07T22:52:27.026Z,1.40
2022-11-07T22:54:54.887Z,1.70
2022-11-07T22:57:22.513Z,1.50
2022-11-07T22:59:50.158Z,1.30
2022-11-07T23:02:19.175Z,1.30
2022-11-07T23:04:46.915Z,1.40
2022-11-07T23:07:14.565Z,1.47
2022-11-07T23:09:42.207Z,1.50
2022-11-07T23:12:10.027Z,1.73
2022-11-07T23:14:37.742Z,1.60
2022-11-07T23:17:05.358Z,1.47
2022-11-07T23:19:34.414Z,1.23
2022-11-07T23:22:03.450Z,1.30
2022-11-07T23:24:31.131Z,2.30
2022-11-07T23:26:59.083Z,1.40
2022-11-07T23:29:26.778Z,1.50
2022-11-07T23:31:54.488Z,1.40
2022-11-07T23:34:23.343Z,1.57
2022-11-07T23:36:53.261Z,2.20
2022-11-07T23:39:22.166Z,2.60
2022-11-07T23:41:49.946Z,2.10
2022-11-07T23:44:17.597Z,2.70
2022-11-07T23:46:54.370Z,2.40
2022-11-07T23:49:32.789Z,2.30
2022-11-07T23:52:01.784Z,2.40
2022-11-07T23:54:38.766Z,2.60
2022-11-07T23:57:07.427Z,2.00
2022-11-07T23:59:45.882Z,2.40
